KAWO2: Kaw Lake

Data processed at Tue May 22 2018 23:02


All information presented herein is the property of the government of the United States of America and may be revised or deleted at any time without prior notice.
Dissemination of this information without the expressed written consent of the Public Affairs Office, Tulsa District U.S. Army Corps of Engineers is strictly prohibited.
These data are gathered electronically and, as presented, have not undergone any form of quality control. These data are not guaranteed to be valid or correct.
Go to home page.
Go to station list.

Upstream stations:

Downstream station:
Previous Day
Next Day
Current Day
    
SHEF ID:       KAWO2     Kaw Lake
STATION TYPE:  RESERVOIR
Normal Pool:  Bottom =   978.00, Top =  1010.00

               PRECIP  RIV-FLOW ELEVATION   STORAGE   TW-ELEV    INFLOW   RELEASE  AIR-TEMP  WIND-DIRWIND-SPEED REL-HUMID SOLAR-RAD   VOLTAGE  BAT-LOAD
                   in       cfs        ft     ac-ft        ft       cfs       cfs         F       deg       mph         %      W/m2      volt      volt
              Ccp-Rev   Ccp-Rev   Ccp-Rev   Ccp-Rev   Ccp-Rev  Regi-Rev  Regi-Rev   Ccp-Rev   Ccp-Rev   Ccp-Rev   Ccp-Rev   Ccp-Rev   Ccp-Rev   Ccp-Rev
(US/Central)
05/20 00:00      0.00      1818   1010.72    374063      3.84      3136      1818     68.85    165.20      4.00      4.87      0.00     12.78     12.65
05/20 01:00      0.84      1880   1010.70    373742      3.88     11166      1880     69.80     35.90     11.30      6.16      0.00     12.76     12.57
05/20 02:00      0.06      1865   1010.65    372940      3.87     11438      1865     67.84     28.20     13.40      0.49      0.00     12.74     12.57
05/20 03:00      0.00      1849   1010.85    376149      3.86     11704      1849     67.41    205.40      6.00     12.06      0.00     12.72     12.57
05/20 04:00      0.00      1911   1010.76    374705      3.90     11971      1911     67.03    252.00      5.80      0.49      0.00     12.70     12.57
05/20 05:00      0.00      1896   1010.92    377272      3.89     13523      1896     67.75    236.90     10.30      0.49      0.00     12.68     12.49
05/20 06:00      0.09      1865   1010.90    376951      3.87      7008      1865     65.23    268.50      5.60      0.65      0.00     12.65     12.49
05/20 07:00      0.01      1849   1010.95    377754      3.86      6892      1849     64.89      1.20      9.60      0.49      0.00     12.64     12.49
05/20 08:00      0.00      2278   1010.98    378235      4.12      7161      2278     63.95    254.40      4.60      0.49     14.10     12.68     12.41
05/20 09:00      0.01      2608   1010.99    378396      4.27      7430      2608     64.26    330.30      6.20      0.49     54.10     12.88     12.49
05/20 10:00      0.00      2564   1011.11    380376      4.25     10000      2564     64.09    354.00     13.40      0.49    136.40     13.17     12.73
05/20 11:00      0.00      2432   1011.03    379052      4.19      8380      2432     63.52    338.70      9.70      0.49     99.60     13.08     12.97
05/20 12:00      0.01      2278   1011.15    381037      4.12      9891      2278     63.55    338.20      8.20      1.04     46.20     13.12     12.89
05/20 13:00      0.02      2113   1011.13    380706      4.03     10614      2113     63.01    350.00      9.00      0.49    135.60     13.24     12.81
05/20 14:00      0.00      2097   1011.18    381534      4.02      9736      2097     63.45    353.00      9.60      0.49    118.60     13.17     13.05
05/20 15:00      0.00      2082   1011.22    382195      4.01      7690      2082     64.63      6.90      7.60      0.49    337.60     13.78     12.97
05/20 16:00      0.00      2082   1011.22    382195      4.01      7690      2082     65.84     35.10      3.30      0.49    149.40     13.25     13.29
05/20 17:00      0.00      2082   1011.29    383353      4.01      7686      2082     65.23    342.40     10.40      0.49    136.40     14.05     12.97
05/20 18:00      0.00      2082   1011.27    383022      4.01      6886      2082     65.57    337.60     10.40      0.49    167.20     14.10     13.13
05/20 19:00      0.00      2082   1011.32    383849      4.01      7686      2082     65.91    345.70      8.60      0.49    130.40     13.26     13.05
05/20 20:00      0.00      2097   1011.33    384015      4.02      5665      2097     65.82    344.20      7.70      0.49     34.00     12.92     12.97
05/20 21:00      0.00      2066   1011.36    384511      4.00      7280      2066     65.50    347.40      5.70      0.49      0.00     12.84     12.73
05/20 22:00      0.00      2066   1011.37    384677      4.00      5713      2066     65.32    346.90      5.40      0.49      0.00     12.82     12.65
05/20 23:00      0.00      2066   1011.40    385173      4.00      4961      2066     64.69      1.50      9.90      0.49      0.00     12.80     12.65